Time;durP1;ratioP1;P1;durP2;ratioP2;P2;SDS_P1;SDS_P2;PMS_P1;PMS_P2;Temp;Humidity;BMP_temperature;BMP_pressure;BME280_temperature;BME280_humidity;BME280_pressure;Samples;Min_cycle;Max_cycle;Signal;HPM_P1;HPM_P2
2022/01/02 00:01:48;;;;;;;10.82;4.18;;;9.60;88.60;;;;;;5004159;28;20045;-72
2022/01/02 00:04:20;;;;;;;9.55;4.00;;;9.60;88.60;;;;;;5007701;28;20050;-71
2022/01/02 00:07:09;;;;;;;5.49;2.50;;;9.60;88.60;;;;;;3042091;28;10002332;-72
2022/01/02 00:09:46;;;;;;;6.35;3.58;;;9.60;88.50;;;;;;3281437;28;10001834;-71
2022/01/02 00:12:25;;;;;;;;;;;9.50;88.70;;;;;;5011346;28;20149;-71
2022/01/02 00:14:59;;;;;;;5.07;2.50;;;9.50;88.60;;;;;;5011840;28;20360;-73
2022/01/02 00:17:33;;;;;;;7.30;2.88;;;9.50;88.60;;;;;;5011940;28;20045;-72
2022/01/02 00:20:09;;;;;;;6.45;3.17;;;9.50;88.70;;;;;;5012428;28;20121;-71
2022/01/02 00:22:39;;;;;;;10.90;4.85;;;9.50;88.60;;;;;;5011076;28;20045;-72
2022/01/02 00:25:12;;;;;;;7.68;3.78;;;9.50;88.60;;;;;;5011638;28;20054;-71
2022/01/02 00:27:42;;;;;;;8.63;4.38;;;9.50;88.50;;;;;;5012209;28;20153;-70
2022/01/02 00:30:10;;;;;;;8.55;4.65;;;9.40;88.50;;;;;;5010965;28;20500;-71
2022/01/02 00:32:38;;;;;;;7.70;3.45;;;9.40;88.40;;;;;;5011911;28;20137;-73
2022/01/02 00:35:06;;;;;;;5.75;3.03;;;9.40;88.30;;;;;;5011390;28;20069;-73
2022/01/02 00:37:32;;;;;;;6.72;2.88;;;9.40;88.20;;;;;;5012248;28;20042;-71
2022/01/02 00:39:59;;;;;;;4.80;2.67;;;9.40;88.10;;;;;;5026373;28;20046;-71
2022/01/02 00:42:38;;;;;;;6.18;2.63;;;9.30;88.00;;;;;;5007996;28;20121;-71
2022/01/02 00:45:09;;;;;;;6.43;2.60;;;9.30;88.00;;;;;;5011253;28;20033;-72
2022/01/02 00:47:45;;;;;;;5.80;2.80;;;9.30;88.00;;;;;;5011778;28;20041;-70
2022/01/02 00:50:13;;;;;;;5.72;2.65;;;9.30;88.10;;;;;;5009521;28;20042;-71
2022/01/02 00:52:42;;;;;;;5.30;2.97;;;9.30;88.20;;;;;;5011163;28;20133;-71
2022/01/02 00:55:10;;;;;;;6.50;2.83;;;9.30;88.20;;;;;;5011429;28;20052;-73
2022/01/02 00:57:40;;;;;;;6.13;2.60;;;9.30;88.30;;;;;;5010764;28;20503;-72
2022/01/02 01:00:14;;;;;;;7.20;3.38;;;9.30;88.20;;;;;;5007516;28;20501;-71
2022/01/02 01:02:45;;;;;;;5.85;2.90;;;9.20;88.20;;;;;;5010693;28;20060;-72
2022/01/02 01:05:19;;;;;;;6.68;2.97;;;9.30;88.30;;;;;;5009403;28;20057;-72
2022/01/02 01:07:49;;;;;;;5.40;2.60;;;9.20;88.30;;;;;;5009677;28;20407;-72
2022/01/02 01:10:16;;;;;;;4.28;2.65;;;9.20;88.40;;;;;;5024436;28;20069;-71
2022/01/02 01:12:44;;;;;;;8.05;2.85;;;9.30;88.50;;;;;;5010212;28;20143;-71
2022/01/02 01:15:13;;;;;;;8.52;3.92;;;9.30;88.50;;;;;;5009612;28;20054;-73
2022/01/02 01:17:40;;;;;;;5.10;2.53;;;9.30;88.50;;;;;;5008498;28;20053;-72
2022/01/02 01:20:12;;;;;;;9.52;2.97;;;9.30;88.50;;;;;;5022592;28;20649;-73
2022/01/02 01:22:39;;;;;;;7.55;3.85;;;9.30;88.50;;;;;;5008749;28;20064;-71
2022/01/02 01:25:12;;;;;;;8.38;3.58;;;9.30;88.40;;;;;;5007470;28;20050;-71
2022/01/02 01:27:40;;;;;;;8.80;3.65;;;9.30;88.50;;;;;;5009264;28;20037;-73
2022/01/02 01:30:08;;;;;;;6.93;3.38;;;9.30;88.70;;;;;;5009275;28;20072;-73
2022/01/02 01:32:37;;;;;;;7.30;3.75;;;9.30;88.60;;;;;;5009477;28;20042;-71
2022/01/02 01:35:05;;;;;;;7.78;3.97;;;9.20;88.70;;;;;;5007393;28;20064;-71
2022/01/02 01:37:32;;;;;;;8.25;3.60;;;9.20;88.70;;;;;;5008978;28;20042;-71
2022/01/02 01:39:59;;;;;;;10.05;4.40;;;9.20;88.70;;;;;;5008604;28;20042;-71
2022/01/02 01:42:35;;;;;;;10.93;4.85;;;9.20;88.70;;;;;;5007713;28;20577;-72
2022/01/02 01:45:28;;;;;;;8.80;4.05;;;9.20;88.80;;;;;;5023331;28;20053;-72
2022/01/02 01:47:57;;;;;;;7.07;3.30;;;9.20;88.70;;;;;;5009370;28;20412;-71
2022/01/02 01:50:27;;;;;;;5.65;2.95;;;9.20;88.80;;;;;;5009173;28;20132;-71
2022/01/02 01:52:55;;;;;;;5.55;2.55;;;9.20;88.80;;;;;;5023229;28;20144;-73
2022/01/02 01:55:24;;;;;;;6.43;2.65;;;9.20;88.60;;;;;;5007219;28;20050;-72
2022/01/02 01:57:53;;;;;;;5.00;2.60;;;9.20;88.50;;;;;;5008605;28;20038;-72
2022/01/02 02:00:24;;;;;;;5.72;3.33;;;9.20;88.50;;;;;;5021339;28;20042;-70
2022/01/02 02:02:58;;;;;;;5.22;2.75;;;9.20;88.50;;;;;;5007308;28;20135;-70
2022/01/02 02:05:25;;;;;;;4.75;2.13;;;9.20;88.50;;;;;;5008712;28;20129;-71
2022/01/02 02:07:53;;;;;;;4.03;2.33;;;9.20;88.50;;;;;;5024512;28;20048;-71
2022/01/02 02:10:28;;;;;;;4.22;2.33;;;9.10;88.40;;;;;;5022766;28;20050;-71
2022/01/02 02:13:03;;;;;;;4.55;2.10;;;9.10;88.50;;;;;;5024624;28;20471;-70
2022/01/02 02:15:33;;;;;;;5.25;2.55;;;9.20;88.20;;;;;;5023788;28;20056;-70
2022/01/02 02:18:01;;;;;;;4.85;2.83;;;9.10;88.10;;;;;;5008922;28;20042;-71
2022/01/02 02:20:33;;;;;;;3.47;2.00;;;9.10;88.00;;;;;;5008918;28;20046;-72
2022/01/02 02:23:05;;;;;;;3.80;1.73;;;9.10;88.00;;;;;;5008692;28;20103;-71
2022/01/02 02:25:35;;;;;;;3.85;1.48;;;9.00;87.90;;;;;;5022575;28;20050;-71
2022/01/02 02:28:06;;;;;;;4.90;1.70;;;9.00;87.90;;;;;;5024353;28;20046;-72
2022/01/02 02:30:37;;;;;;;3.40;1.85;;;9.00;87.80;;;;;;5007219;28;20461;-71
2022/01/02 02:33:06;;;;;;;2.83;1.40;;;8.90;87.70;;;;;;5007841;28;20136;-71
2022/01/02 02:35:36;;;;;;;3.03;1.60;;;8.90;87.70;;;;;;5023059;28;20046;-71
2022/01/02 02:38:05;;;;;;;4.00;1.50;;;9.00;87.70;;;;;;5009923;28;20065;-72
2022/01/02 02:40:32;;;;;;;4.03;1.60;;;8.90;87.70;;;;;;5006403;28;20692;-71
2022/01/02 02:43:05;;;;;;;4.03;1.90;;;8.90;87.70;;;;;;5025153;28;20074;-72
2022/01/02 02:51:10;;;;;;;4.18;2.10;;;8.90;88.00;;;;;;5024485;28;20049;-71
2022/01/02 02:53:41;;;;;;;5.15;2.03;;;8.90;88.10;;;;;;5018928;28;20085;-72
2022/01/02 02:56:15;;;;;;;6.47;2.83;;;8.90;88.10;;;;;;5005755;28;20150;-72
2022/01/02 02:58:43;;;;;;;4.25;2.30;;;8.90;88.10;;;;;;5023227;28;20594;-70
2022/01/02 03:01:13;;;;;;;2.78;1.90;;;8.90;88.00;;;;;;5003829;28;20058;-71
2022/01/02 03:03:45;;;;;;;3.53;1.90;;;8.90;88.00;;;;;;5007277;28;20075;-72
2022/01/02 03:06:21;;;;;;;5.18;2.10;;;8.90;88.00;;;;;;5021989;28;20267;-71
2022/01/02 03:08:54;;;;;;;5.00;2.28;;;8.90;88.00;;;;;;5022510;28;20042;-70
2022/01/02 03:11:30;;;;;;;4.38;2.05;;;8.90;88.00;;;;;;5021218;28;20056;-70
2022/01/02 03:14:12;;;;;;;3.63;1.77;;;8.80;87.80;;;;;;5005035;28;20407;-72
2022/01/02 03:16:45;;;;;;;3.60;1.90;;;8.80;87.90;;;;;;5023079;28;20053;-71
2022/01/02 03:19:12;;;;;;;4.32;1.98;;;8.70;87.90;;;;;;5006250;28;20125;-71
2022/01/02 03:21:44;;;;;;;3.75;1.73;;;8.70;88.10;;;;;;5006475;28;20046;-72
2022/01/02 03:24:12;;;;;;;4.45;1.90;;;8.80;88.00;;;;;;5005099;28;20393;-70
2022/01/02 03:26:47;;;;;;;2.95;1.67;;;8.80;88.00;;;;;;5021549;28;20104;-72
2022/01/02 03:29:14;;;;;;;3.17;1.60;;;8.80;88.00;;;;;;5022383;28;20048;-73
2022/01/02 03:31:41;;;;;;;5.05;2.10;;;8.80;87.90;;;;;;5007193;28;20038;-72
2022/01/02 03:34:08;;;;;;;5.18;2.28;;;8.80;87.70;;;;;;5005667;28;20058;-71
2022/01/02 03:36:35;;;;;;;3.67;1.73;;;8.80;87.70;;;;;;5008603;28;20045;-71
2022/01/02 03:39:04;;;;;;;4.85;2.47;;;8.80;87.60;;;;;;5008962;28;20042;-70
2022/01/02 03:41:32;;;;;;;4.07;2.20;;;8.70;87.70;;;;;;5006954;28;20132;-72
2022/01/02 03:43:59;;;;;;;5.15;2.20;;;8.80;87.50;;;;;;5011233;28;20494;-70
2022/01/02 03:46:27;;;;;;;5.25;2.35;;;8.70;87.50;;;;;;5011272;28;20050;-69
2022/01/02 03:49:01;;;;;;;4.35;1.98;;;8.70;87.50;;;;;;5011720;28;20061;-70
2022/01/02 03:51:29;;;;;;;4.93;1.95;;;8.70;87.60;;;;;;5026985;28;20451;-71
2022/01/02 03:53:56;;;;;;;6.30;2.22;;;8.70;87.70;;;;;;5011148;28;20050;-74
2022/01/02 03:56:27;;;;;;;4.93;1.95;;;8.70;87.80;;;;;;5027789;28;20053;-70
2022/01/02 03:58:54;;;;;;;4.35;2.00;;;8.70;87.80;;;;;;5010993;28;20054;-71
2022/01/02 04:01:21;;;;;;;4.20;2.08;;;8.70;87.80;;;;;;5009309;28;20042;-72
2022/01/02 04:03:48;;;;;;;4.07;1.73;;;8.70;87.70;;;;;;5009844;28;20044;-71
2022/01/02 04:06:15;;;;;;;3.97;1.60;;;8.60;87.70;;;;;;5012143;28;20042;-71
2022/01/02 04:08:42;;;;;;;3.15;1.30;;;8.60;87.60;;;;;;5012956;28;20133;-71
2022/01/02 04:11:09;;;;;;;3.75;1.75;;;8.60;87.70;;;;;;5026636;28;20184;-71
2022/01/02 04:13:38;;;;;;;3.85;1.63;;;8.60;87.60;;;;;;5010315;28;20678;-73
2022/01/02 04:16:05;;;;;;;3.30;2.13;;;8.60;87.60;;;;;;5010032;28;20049;-71
2022/01/02 04:18:32;;;;;;;3.05;1.42;;;8.60;87.50;;;;;;5010653;28;20515;-72
2022/01/02 04:20:59;;;;;;;3.95;1.88;;;8.50;87.40;;;;;;5012474;28;20558;-72
2022/01/02 04:23:26;;;;;;;2.65;1.23;;;8.50;87.40;;;;;;5010486;28;20396;-72
2022/01/02 04:25:52;;;;;;;3.05;1.90;;;8.50;87.30;;;;;;5012452;28;20092;-71
2022/01/02 04:28:20;;;;;;;3.70;1.50;;;8.50;87.30;;;;;;5010832;28;20136;-71
2022/01/02 04:30:48;;;;;;;3.65;1.42;;;8.50;87.30;;;;;;5010398;28;20085;-71
2022/01/02 04:33:16;;;;;;;3.42;1.48;;;8.40;87.20;;;;;;5027247;28;20046;-72
2022/01/02 04:35:43;;;;;;;3.90;1.65;;;8.50;87.30;;;;;;5025585;28;20415;-73
2022/01/02 04:38:10;;;;;;;2.60;1.10;;;8.40;87.20;;;;;;5010458;28;20046;-72
2022/01/02 04:40:37;;;;;;;3.03;1.60;;;8.50;87.20;;;;;;5008247;28;20056;-74
2022/01/02 04:43:07;;;;;;;2.30;1.17;;;8.40;87.10;;;;;;5008554;28;20054;-71
2022/01/02 04:45:34;;;;;;;3.35;1.30;;;8.40;87.00;;;;;;5025025;28;20120;-72
2022/01/02 04:48:03;;;;;;;3.33;1.73;;;8.30;87.20;;;;;;5009071;28;20056;-71
2022/01/02 04:50:32;;;;;;;3.67;1.30;;;8.40;87.20;;;;;;5009748;28;20042;-71
2022/01/02 04:52:59;;;;;;;3.10;1.88;;;8.40;87.20;;;;;;5008823;28;20044;-73
2022/01/02 04:55:27;;;;;;;3.20;1.92;;;8.40;87.10;;;;;;5008883;28;20057;-72
2022/01/02 04:57:54;;;;;;;3.80;1.40;;;8.40;87.10;;;;;;5008982;28;20439;-71
2022/01/02 05:00:22;;;;;;;3.05;1.38;;;8.40;87.10;;;;;;5006760;28;21111;-71
2022/01/02 05:02:52;;;;;;;2.50;1.30;;;8.40;87.10;;;;;;5008061;28;20045;-73
2022/01/02 05:05:21;;;;;;;5.63;1.80;;;8.30;87.20;;;;;;5024725;28;20054;-74
2022/01/02 05:07:48;;;;;;;4.40;1.58;;;8.40;87.30;;;;;;5007910;28;20108;-72
2022/01/02 05:10:15;;;;;;;3.38;1.35;;;8.40;87.40;;;;;;5008249;28;20140;-74
2022/01/02 05:12:43;;;;;;;4.03;1.65;;;8.40;87.40;;;;;;5007561;28;20073;-72
2022/01/02 05:15:11;;;;;;;3.40;1.30;;;8.40;87.40;;;;;;5008753;28;20046;-71
2022/01/02 05:17:38;;;;;;;6.10;1.77;;;8.40;87.40;;;;;;5010049;28;20136;-73
2022/01/02 05:20:07;;;;;;;4.53;1.80;;;8.40;87.40;;;;;;5026588;28;20053;-70
2022/01/02 05:22:38;;;;;;;4.28;1.98;;;8.40;87.40;;;;;;5025607;28;20076;-72
2022/01/02 05:25:06;;;;;;;5.00;2.10;;;8.40;87.40;;;;;;5025999;28;20329;-71
2022/01/02 05:27:34;;;;;;;3.78;1.75;;;8.40;87.50;;;;;;5010189;28;20053;-71
2022/01/02 05:30:02;;;;;;;5.50;1.85;;;8.40;87.40;;;;;;5010086;28;20149;-71
2022/01/02 05:32:30;;;;;;;4.38;1.70;;;8.40;87.40;;;;;;5026083;28;20499;-70
2022/01/02 05:34:58;;;;;;;4.65;2.10;;;8.40;87.40;;;;;;5009174;28;20129;-71
2022/01/02 05:37:24;;;;;;;4.20;1.90;;;8.30;87.60;;;;;;5011411;28;20488;-72
2022/01/02 05:39:53;;;;;;;4.50;1.60;;;8.40;87.60;;;;;;5010836;28;20042;-72
2022/01/02 05:42:20;;;;;;;4.45;1.67;;;8.40;87.40;;;;;;5024925;28;20053;-71
2022/01/02 05:44:47;;;;;;;3.63;1.45;;;8.40;87.20;;;;;;5026011;28;20424;-71
2022/01/02 05:47:14;;;;;;;3.17;1.60;;;8.40;87.30;;;;;;5009278;28;20045;-73
2022/01/02 05:49:41;;;;;;;4.28;1.95;;;8.40;87.30;;;;;;5023684;28;20057;-72
2022/01/02 05:52:08;;;;;;;4.65;1.98;;;8.40;87.10;;;;;;5025507;28;20046;-72
2022/01/02 05:54:35;;;;;;;4.82;2.10;;;8.40;87.10;;;;;;5025835;28;20050;-72
2022/01/02 05:57:04;;;;;;;5.07;2.08;;;8.40;87.00;;;;;;5009837;28;20526;-72
2022/01/02 05:59:31;;;;;;;4.10;1.80;;;8.30;87.00;;;;;;5024742;28;20053;-71
2022/01/02 06:01:58;;;;;;;5.22;1.77;;;8.30;87.10;;;;;;5006252;28;20046;-72
2022/01/02 06:04:27;;;;;;;3.63;1.85;;;8.30;87.20;;;;;;5008659;28;20136;-70
2022/01/02 06:06:54;;;;;;;3.85;1.58;;;8.30;87.20;;;;;;5024742;28;20045;-73
2022/01/02 06:09:21;;;;;;;6.05;2.10;;;8.30;87.30;;;;;;5020506;28;20145;-70
2022/01/02 06:11:50;;;;;;;3.85;2.03;;;8.30;87.50;;;;;;5007936;28;20053;-70
2022/01/02 06:14:21;;;;;;;5.27;2.03;;;8.20;87.50;;;;;;5007969;28;20131;-74
2022/01/02 06:16:48;;;;;;;4.55;2.15;;;8.20;87.30;;;;;;4999623;28;20137;-70
2022/01/02 06:19:15;;;;;;;4.25;1.83;;;8.20;87.30;;;;;;5005865;28;20062;-72
2022/01/02 06:21:43;;;;;;;5.93;2.17;;;8.20;87.30;;;;;;5007307;28;20041;-70
2022/01/02 06:24:10;;;;;;;5.28;2.17;;;8.20;87.30;;;;;;5019716;28;20042;-70
2022/01/02 06:26:38;;;;;;;5.90;1.92;;;8.20;87.30;;;;;;5018696;28;20096;-72
2022/01/02 06:29:05;;;;;;;4.15;1.92;;;8.20;87.20;;;;;;5021308;28;20531;-71
2022/01/02 06:31:34;;;;;;;3.92;1.80;;;8.20;87.30;;;;;;5022088;28;20093;-71
2022/01/02 06:34:02;;;;;;;5.68;1.95;;;8.20;87.30;;;;;;5020825;28;20642;-73
2022/01/02 06:36:31;;;;;;;4.28;1.95;;;8.20;87.30;;;;;;5007839;28;20058;-72
2022/01/02 06:38:58;;;;;;;5.13;1.88;;;8.20;87.40;;;;;;5005948;28;20519;-72
2022/01/02 06:41:25;;;;;;;3.30;1.63;;;8.20;87.40;;;;;;5004555;28;20046;-71
2022/01/02 06:43:54;;;;;;;4.32;1.60;;;8.10;87.60;;;;;;5007164;28;20041;-73
2022/01/02 06:46:24;;;;;;;3.08;1.77;;;8.20;87.40;;;;;;5020224;28;20112;-71
2022/01/02 06:48:54;;;;;;;4.32;1.75;;;8.20;87.30;;;;;;5005357;28;20049;-71
2022/01/02 06:51:21;;;;;;;4.85;1.77;;;8.10;87.20;;;;;;5022114;28;20146;-72
2022/01/02 06:53:48;;;;;;;2.78;1.40;;;8.10;87.20;;;;;;5022975;28;20046;-72
2022/01/02 06:56:16;;;;;;;2.92;1.20;;;8.10;87.20;;;;;;5006818;28;20054;-71
2022/01/02 06:58:43;;;;;;;2.72;1.13;;;8.10;87.20;;;;;;5008168;28;20144;-71
2022/01/02 07:01:10;;;;;;;3.55;1.58;;;8.10;87.20;;;;;;5005722;28;20629;-73
2022/01/02 07:03:37;;;;;;;4.40;2.08;;;8.10;87.20;;;;;;5007664;28;20399;-72
2022/01/02 07:06:06;;;;;;;3.97;1.88;;;8.20;87.30;;;;;;5007614;28;20408;-70
2022/01/02 07:08:33;;;;;;;4.05;1.52;;;8.20;87.20;;;;;;5024876;28;20050;-71
2022/01/02 07:11:01;;;;;;;4.03;1.80;;;8.20;87.20;;;;;;5023970;28;20068;-72
2022/01/02 07:13:34;;;;;;;5.60;2.53;;;8.20;87.20;;;;;;5010028;28;20056;-71
2022/01/02 07:16:01;;;;;;;5.90;1.90;;;8.20;87.10;;;;;;5008951;28;20132;-71
2022/01/02 07:18:32;;;;;;;3.53;1.75;;;8.20;87.10;;;;;;5013131;28;20494;-71
2022/01/02 07:20:59;;;;;;;3.22;1.73;;;8.10;87.20;;;;;;5012665;28;20038;-72
2022/01/02 07:23:27;;;;;;;5.32;2.17;;;8.20;87.10;;;;;;5012443;28;20071;-72
2022/01/02 07:25:54;;;;;;;4.10;1.60;;;8.20;87.10;;;;;;5013012;28;20042;-71
2022/01/02 07:28:22;;;;;;;4.95;2.05;;;8.20;87.10;;;;;;5013102;28;20049;-73
2022/01/02 07:30:49;;;;;;;5.07;1.73;;;8.20;87.10;;;;;;5013165;28;20058;-70
2022/01/02 07:33:16;;;;;;;3.80;1.70;;;8.20;87.10;;;;;;5012607;28;20041;-72
2022/01/02 07:35:43;;;;;;;4.63;1.80;;;8.10;87.20;;;;;;5012837;28;20042;-71
2022/01/02 07:38:10;;;;;;;5.45;2.17;;;8.10;87.20;;;;;;5012762;28;20045;-71
2022/01/02 07:40:43;;;;;;;4.05;1.95;;;8.10;87.20;;;;;;5012937;28;20104;-71
2022/01/02 07:43:10;;;;;;;4.28;1.67;;;8.10;87.20;;;;;;5012237;28;20065;-71
2022/01/02 07:45:37;;;;;;;4.82;2.10;;;8.10;87.30;;;;;;5012919;28;20060;-71
2022/01/02 07:48:04;;;;;;;4.80;2.05;;;8.10;87.30;;;;;;5012238;28;20125;-70
2022/01/02 07:50:31;;;;;;;3.83;1.50;;;8.10;87.30;;;;;;5012974;28;20143;-72
2022/01/02 07:52:57;;;;;;;4.47;2.28;;;8.10;87.30;;;;;;5011386;28;20038;-72
2022/01/02 07:55:24;;;;;;;4.65;1.90;;;8.10;87.40;;;;;;5012659;28;20072;-71
2022/01/02 07:57:53;;;;;;;4.22;2.03;;;8.10;87.50;;;;;;5010443;28;20045;-71
2022/01/02 08:00:21;;;;;;;5.40;1.95;;;8.10;87.40;;;;;;5006771;28;20053;-70
2022/01/02 08:02:48;;;;;;;4.45;2.00;;;8.10;87.50;;;;;;5009892;28;20045;-71
2022/01/02 08:05:14;;;;;;;6.30;1.88;;;8.10;87.50;;;;;;5010944;28;20511;-71
2022/01/02 08:07:42;;;;;;;3.33;1.45;;;8.10;87.50;;;;;;5010835;28;20083;-70
2022/01/02 08:10:10;;;;;;;4.05;1.80;;;8.10;87.60;;;;;;5010073;28;20058;-72
2022/01/02 08:12:36;;;;;;;5.88;2.38;;;8.20;87.50;;;;;;5010483;28;20038;-73
2022/01/02 08:15:06;;;;;;;4.43;1.60;;;8.10;87.50;;;;;;5009400;28;20077;-71
2022/01/02 08:17:33;;;;;;;4.05;1.70;;;8.10;87.50;;;;;;5009963;28;20321;-73
2022/01/02 08:20:00;;;;;;;5.07;1.92;;;8.10;87.50;;;;;;5008921;28;20422;-72
2022/01/02 08:22:27;;;;;;;5.15;1.77;;;8.10;87.50;;;;;;5010377;28;20046;-72
2022/01/02 08:24:54;;;;;;;5.03;2.03;;;8.20;87.50;;;;;;5010626;28;20053;-71
2022/01/02 08:27:21;;;;;;;5.65;2.15;;;8.20;87.50;;;;;;5009080;28;20046;-73
2022/01/02 08:29:47;;;;;;;6.68;2.33;;;8.20;87.50;;;;;;5008406;28;20038;-70
2022/01/02 08:32:16;;;;;;;4.97;2.17;;;8.20;87.50;;;;;;5010264;28;20046;-71
2022/01/02 08:34:43;;;;;;;5.72;2.30;;;8.20;87.40;;;;;;5010915;28;20073;-71
2022/01/02 08:37:11;;;;;;;5.47;2.38;;;8.20;87.50;;;;;;5011078;28;20504;-71
2022/01/02 08:39:38;;;;;;;5.30;2.15;;;8.20;87.40;;;;;;5011989;28;20221;-72
2022/01/02 08:42:06;;;;;;;4.63;2.00;;;8.20;87.50;;;;;;5012088;28;20064;-71
2022/01/02 08:44:33;;;;;;;5.20;2.10;;;8.20;87.40;;;;;;5011664;28;20041;-70
2022/01/02 08:47:00;;;;;;;4.35;1.90;;;8.20;87.50;;;;;;5011857;28;20073;-72
2022/01/02 08:49:32;;;;;;;4.53;2.10;;;8.20;87.50;;;;;;5011817;28;20073;-71
2022/01/02 08:51:59;;;;;;;5.88;2.38;;;8.20;87.50;;;;;;5011210;28;20056;-71
2022/01/02 08:54:26;;;;;;;3.53;1.67;;;8.20;87.40;;;;;;5010186;28;20144;-70
2022/01/02 08:56:53;;;;;;;4.43;1.85;;;8.10;87.60;;;;;;5010766;28;20551;-71
2022/01/02 08:59:24;;;;;;;3.90;1.88;;;8.20;87.60;;;;;;5011239;28;20085;-71
2022/01/02 09:01:51;;;;;;;4.25;1.83;;;8.20;87.60;;;;;;5008748;28;20254;-70
2022/01/02 09:04:18;;;;;;;4.80;1.80;;;8.20;87.50;;;;;;5010505;28;20078;-72
2022/01/02 09:06:46;;;;;;;4.20;1.73;;;8.20;87.40;;;;;;5011120;28;20038;-71
2022/01/02 09:09:13;;;;;;;4.45;2.05;;;8.20;87.40;;;;;;5011633;28;20073;-70
2022/01/02 09:11:40;;;;;;;5.43;2.60;;;8.20;87.40;;;;;;5009987;28;20050;-72
2022/01/02 09:14:09;;;;;;;4.40;2.30;;;8.20;87.60;;;;;;5009835;28;20068;-71
2022/01/02 09:16:37;;;;;;;5.80;2.10;;;8.20;87.70;;;;;;5011865;28;20259;-71
2022/01/02 09:19:04;;;;;;;5.47;2.08;;;8.30;87.70;;;;;;5010738;28;20588;-70
2022/01/02 09:21:31;;;;;;;4.60;2.10;;;8.30;87.70;;;;;;5010753;28;20042;-72
2022/01/02 09:23:59;;;;;;;5.78;2.33;;;8.30;87.70;;;;;;5010392;28;20384;-71
2022/01/02 09:26:26;;;;;;;6.82;2.60;;;8.30;87.70;;;;;;5010235;28;20453;-71
2022/01/02 09:28:53;;;;;;;4.55;1.98;;;8.40;87.60;;;;;;5010511;28;20064;-71
2022/01/02 09:31:20;;;;;;;4.38;2.03;;;8.40;87.50;;;;;;5010531;28;20415;-72
2022/01/02 09:33:47;;;;;;;5.57;2.05;;;8.40;87.50;;;;;;5006903;28;20046;-72
2022/01/02 09:36:14;;;;;;;5.80;2.30;;;8.40;87.60;;;;;;5007540;28;20125;-71
2022/01/02 09:38:42;;;;;;;4.28;2.00;;;8.40;87.50;;;;;;5007852;28;20125;-72
2022/01/02 09:41:10;;;;;;;5.10;1.83;;;8.50;87.40;;;;;;5009033;28;20540;-71
2022/01/02 09:43:37;;;;;;;3.80;1.73;;;8.60;87.30;;;;;;5007312;28;20369;-71
2022/01/02 09:46:05;;;;;;;5.78;1.98;;;8.50;87.40;;;;;;5008279;28;20056;-71
2022/01/02 09:48:32;;;;;;;3.75;1.83;;;8.60;87.30;;;;;;5003449;28;20531;-71
2022/01/02 09:51:01;;;;;;;4.38;2.03;;;8.60;87.10;;;;;;5007051;28;20046;-71
2022/01/02 09:53:31;;;;;;;3.45;1.25;;;8.60;87.20;;;;;;5003944;28;20069;-71
2022/01/02 09:55:58;;;;;;;5.03;1.98;;;8.60;87.20;;;;;;5007103;28;20049;-73
2022/01/02 09:58:27;;;;;;;7.22;2.38;;;8.60;87.30;;;;;;5007505;28;20044;-71
2022/01/02 10:00:54;;;;;;;3.97;2.20;;;8.60;87.30;;;;;;5002973;28;20496;-72
2022/01/02 10:03:21;;;;;;;4.93;1.58;;;8.60;87.30;;;;;;5005828;28;20046;-71
2022/01/02 10:05:56;;;;;;;3.17;1.52;;;8.60;87.40;;;;;;5007846;28;20128;-71
2022/01/02 10:08:25;;;;;;;4.93;1.77;;;8.60;87.30;;;;;;5007743;28;20038;-71
2022/01/02 10:11:00;;;;;;;3.67;1.75;;;8.60;87.30;;;;;;5006373;28;20058;-74
2022/01/02 10:13:40;;;;;;;4.47;1.80;;;8.60;87.50;;;;;;5022639;28;20470;-71
2022/01/02 10:16:23;;;;;;;4.20;1.95;;;8.70;87.60;;;;;;5008874;28;20129;-71
2022/01/02 10:18:53;;;;;;;3.60;1.55;;;8.70;87.50;;;;;;5008570;28;20104;-73
2022/01/02 10:21:38;;;;;;;3.78;1.52;;;8.70;87.50;;;;;;5009328;28;20050;-71
2022/01/02 10:24:13;;;;;;;4.13;1.60;;;8.70;87.50;;;;;;5008445;28;20042;-71
2022/01/02 10:26:41;;;;;;;4.35;2.08;;;8.70;87.60;;;;;;5024742;28;20116;-70
2022/01/02 10:29:13;;;;;;;4.20;1.90;;;8.70;87.70;;;;;;5010137;28;20038;-72
2022/01/02 10:31:41;;;;;;;4.05;1.85;;;8.80;87.80;;;;;;5010415;28;20065;-71
2022/01/02 10:34:08;;;;;;;4.07;2.00;;;8.70;87.80;;;;;;5010085;28;20076;-73
2022/01/02 10:36:38;;;;;;;3.72;1.95;;;8.80;87.70;;;;;;5008308;28;20089;-71
2022/01/02 10:39:09;;;;;;;6.95;2.53;;;8.80;87.70;;;;;;5009045;28;20040;-72
2022/01/02 10:41:38;;;;;;;4.18;2.13;;;8.80;87.80;;;;;;5009449;28;20045;-71
2022/01/02 10:44:26;;;;;;;6.43;2.30;;;8.80;87.80;;;;;;5009665;28;20134;-71
2022/01/02 10:47:11;;;;;;;4.53;2.10;;;8.70;87.80;;;;;;5009160;28;20045;-71
2022/01/02 10:49:52;;;;;;;6.20;2.28;;;8.70;87.80;;;;;;5009475;28;20034;-71
2022/01/02 10:52:21;;;;;;;5.90;2.08;;;8.80;87.90;;;;;;5009263;28;20052;-71
2022/01/02 10:54:49;;;;;;;4.60;2.15;;;8.80;87.80;;;;;;5008769;28;20048;-71
2022/01/02 10:57:16;;;;;;;5.78;1.98;;;8.80;87.80;;;;;;5009118;28;20081;-72
2022/01/02 10:59:45;;;;;;;2.75;1.65;;;8.80;87.90;;;;;;5009001;28;20067;-71
2022/01/02 11:02:14;;;;;;;4.43;2.03;;;8.80;87.80;;;;;;5006899;28;20052;-73
2022/01/02 11:04:47;;;;;;;4.80;2.08;;;8.80;87.90;;;;;;5008940;28;20038;-71
2022/01/02 11:07:20;;;;;;;5.78;2.65;;;8.90;88.00;;;;;;5009457;28;20050;-73
2022/01/02 11:09:48;;;;;;;3.05;1.73;;;8.90;88.00;;;;;;5009691;28;20402;-74
2022/01/02 11:12:16;;;;;;;3.53;1.80;;;8.90;88.00;;;;;;5008599;28;20056;-72
2022/01/02 11:14:45;;;;;;;3.30;1.70;;;8.90;88.00;;;;;;5008601;28;20124;-70
2022/01/02 11:17:14;;;;;;;4.47;2.25;;;8.90;88.10;;;;;;5007359;28;20046;-71
2022/01/02 11:19:41;;;;;;;7.70;2.90;;;8.80;88.20;;;;;;5007528;28;20042;-72
2022/01/02 11:22:12;;;;;;;5.93;2.67;;;8.80;88.10;;;;;;5006486;28;20061;-72
2022/01/02 11:24:47;;;;;;;5.22;2.28;;;8.90;88.10;;;;;;5006905;28;20048;-72
2022/01/02 11:27:22;;;;;;;4.85;2.45;;;8.90;88.10;;;;;;5007374;28;20141;-70
2022/01/02 11:29:51;;;;;;;5.82;2.40;;;8.90;88.20;;;;;;5006703;28;20050;-71
2022/01/02 11:32:23;;;;;;;5.55;2.33;;;8.90;88.20;;;;;;5007690;28;20125;-71
2022/01/02 11:34:51;;;;;;;3.47;2.20;;;8.90;88.20;;;;;;5007915;28;20404;-71
2022/01/02 11:37:26;;;;;;;3.45;1.65;;;8.90;88.20;;;;;;5006928;28;20053;-71
2022/01/02 11:39:55;;;;;;;3.92;2.03;;;8.90;88.20;;;;;;5020897;28;20046;-71
2022/01/02 11:42:45;;;;;;;4.80;2.40;;;8.90;88.20;;;;;;5006686;28;20052;-71
2022/01/02 11:45:41;;;;;;;4.25;1.92;;;8.90;88.20;;;;;;5007516;28;20033;-71
2022/01/02 11:48:29;;;;;;;3.70;2.17;;;8.90;88.20;;;;;;5006819;28;20121;-70
2022/01/02 11:50:56;;;;;;;4.93;2.20;;;8.90;88.30;;;;;;5004709;28;20129;-72
2022/01/02 11:53:25;;;;;;;4.35;2.13;;;8.90;88.30;;;;;;5007373;28;20112;-71
2022/01/02 11:55:55;;;;;;;5.05;2.70;;;9.00;88.30;;;;;;5009969;28;20038;-70
2022/01/02 11:58:55;;;;;;;6.25;2.83;;;9.00;88.30;;;;;;5007990;28;20447;-71
2022/01/02 12:01:57;;;;;;;6.00;2.25;;;9.00;88.30;;;;;;4944931;28;20062;-71
2022/01/02 12:05:12;;;;;;;3.70;1.77;;;9.10;88.10;;;;;;4949866;28;20054;-72
2022/01/02 12:07:53;;;;;;;10.13;2.30;;;9.10;88.00;;;;;;5012779;28;20081;-72
2022/01/02 12:10:31;;;;;;;3.45;1.80;;;9.10;88.10;;;;;;5011653;28;20064;-73
2022/01/02 12:13:16;;;;;;;5.78;2.25;;;9.10;88.10;;;;;;5011528;28;20046;-71
2022/01/02 12:16:09;;;;;;;4.53;2.00;;;9.00;88.10;;;;;;5000233;28;20530;-70
2022/01/02 12:18:58;;;;;;;3.85;1.95;;;9.10;88.10;;;;;;5011642;28;20040;-71
2022/01/02 12:21:25;;;;;;;5.63;2.67;;;9.10;88.10;;;;;;5011849;28;20073;-72
2022/01/02 12:23:56;;;;;;;4.22;1.60;;;9.10;88.10;;;;;;5011104;28;20092;-71
2022/01/02 12:26:32;;;;;;;4.32;2.42;;;9.10;88.20;;;;;;5026393;28;20060;-72
2022/01/02 12:29:02;;;;;;;5.63;2.80;;;9.10;88.20;;;;;;5010644;28;20034;-72
2022/01/02 12:31:34;;;;;;;5.93;2.63;;;9.10;88.30;;;;;;5011425;28;20045;-71
2022/01/02 12:34:13;;;;;;;6.07;3.25;;;9.10;88.40;;;;;;5011830;28;20160;-71
2022/01/02 12:36:43;;;;;;;8.27;3.75;;;9.10;88.50;;;;;;5011589;28;20121;-71
2022/01/02 12:39:12;;;;;;;7.85;3.58;;;9.10;88.40;;;;;;5010936;28;20141;-70
2022/01/02 12:41:40;;;;;;;7.82;3.42;;;9.10;88.50;;;;;;5011422;28;20050;-73
2022/01/02 12:44:09;;;;;;;5.57;2.78;;;9.10;88.50;;;;;;5012020;28;20546;-70
2022/01/02 12:46:42;;;;;;;6.45;3.55;;;9.20;88.40;;;;;;5011319;28;20169;-70
2022/01/02 12:49:12;;;;;;;6.55;3.92;;;9.20;88.40;;;;;;5010660;28;20084;-70
2022/01/02 12:51:41;;;;;;;5.63;2.80;;;9.20;88.30;;;;;;5011828;28;20159;-71
2022/01/02 12:54:10;;;;;;;5.43;3.05;;;9.20;88.40;;;;;;5009197;28;20638;-70
2022/01/02 12:56:39;;;;;;;4.93;2.78;;;9.20;88.30;;;;;;5009112;28;20056;-70
2022/01/02 12:59:21;;;;;;;4.93;2.90;;;9.20;88.50;;;;;;5009921;28;20110;-71
2022/01/02 13:01:49;;;;;;;5.13;2.63;;;9.10;88.50;;;;;;5007677;28;20057;-71
2022/01/02 13:04:18;;;;;;;6.18;2.95;;;9.20;88.50;;;;;;5008749;28;20117;-71
2022/01/02 13:06:46;;;;;;;7.63;2.70;;;9.20;88.40;;;;;;5010102;28;20058;-74
2022/01/02 13:09:13;;;;;;;6.38;3.17;;;9.20;88.30;;;;;;5008939;28;20046;-73
2022/01/02 13:11:40;;;;;;;5.70;2.45;;;9.20;88.20;;;;;;5009864;28;20045;-73
2022/01/02 13:14:07;;;;;;;4.53;2.55;;;9.20;88.20;;;;;;5009148;28;20040;-71
2022/01/02 13:16:35;;;;;;;8.82;3.08;;;9.20;88.20;;;;;;5008877;28;20574;-73
2022/01/02 13:19:02;;;;;;;7.97;2.92;;;9.20;88.00;;;;;;5008639;28;20066;-71